METAR Data
IDs: Format: Raw Decoded Include TAF

Data at: 1825 UTC 16 Oct 2021

KGLE 161815Z AUTO 01006KT 10SM CLR 20/00 A3040 RMK AO2 T01980004
KGLE 161755Z AUTO 36008KT 10SM CLR 20/02 A3041 RMK AO2 T01990023 10199 20060
KGLE 161735Z AUTO 35008G15KT 10SM CLR 20/00 A3042 RMK AO2 T01950002
KGLE 161715Z AUTO 35009G18KT 10SM CLR 19/M01 A3042 RMK AO2 T01931008
KGLE 161655Z AUTO 35008KT 10SM CLR 19/01 A3043 RMK AO2 T01930005
KGLE 161635Z AUTO 33007KT 10SM CLR 19/02 A3043 RMK AO2 T01850024
KGLE 161615Z AUTO 34008KT 10SM CLR 18/01 A3043 RMK AO2 T01810014
KGLE 161555Z AUTO 33007KT 10SM CLR 18/03 A3042 RMK AO2 T01750033
KGLE 161535Z AUTO 35007KT 10SM CLR 17/04 A3042 RMK AO2 T01670043
KGLE 161515Z AUTO 36007KT 10SM CLR 16/06 A3042 RMK AO2 T01610055
KGLE 161455Z AUTO 33005KT 10SM CLR 15/05 A3041 RMK AO2 T01490054
KGLE 161435Z AUTO 34006KT 10SM CLR 14/06 A3041 RMK AO2 T01380060
KGLE 161415Z AUTO 33005KT 10SM CLR 12/07 A3040 RMK AO2 T01240065
KGLE 161355Z AUTO 00000KT 10SM CLR 10/06 A3040 RMK AO2 T01040064
KGLE 161335Z AUTO 31003KT 10SM CLR 09/05 A3039 RMK AO2 T00890053
KGLE 161315Z AUTO 00000KT 10SM CLR 08/05 A3038 RMK AO2 T00750047
KGLE 161255Z AUTO 33003KT 10SM CLR 07/04 A3037 RMK AO2 T00660038
KGLE 161235Z AUTO 00000KT 10SM CLR 06/04 A3037 RMK AO2 T00610039
KGLE 161215Z AUTO 33005KT 10SM CLR 06/04 A3036 RMK AO2 T00640038
KGLE 161155Z AUTO 33005KT 10SM CLR 07/04 A3035 RMK AO2 T00650040 10101 20063
KGLE 161135Z AUTO 33005KT 10SM CLR 07/04 A3035 RMK AO2 T00680040
KGLE 161115Z AUTO 33006KT 10SM CLR 08/04 A3034 RMK AO2 T00750041
KGLE 161055Z AUTO 33005KT 10SM CLR 07/04 A3034 RMK AO2 T00730043
KGLE 161035Z AUTO 34006KT 10SM CLR 07/05 A3034 RMK AO2 T00700045
KGLE 161015Z AUTO 34005KT 10SM CLR 07/05 A3033 RMK AO2 T00690046
KGLE 160955Z AUTO 34004KT 10SM CLR 07/05 A3033 RMK AO2 T00740050
KGLE 160935Z AUTO 36003KT 10SM CLR 07/05 A3033 RMK AO2 T00720051
KGLE 160915Z AUTO 36003KT 10SM CLR 07/05 A3033 RMK AO2 T00720049
KGLE 160855Z AUTO 35004KT 10SM CLR 07/05 A3033 RMK AO2 T00730048
KGLE 160835Z AUTO 35004KT 7SM CLR 08/05 A3033 RMK AO2 T00800050
KGLE 160815Z AUTO 34003KT 10SM CLR 08/05 A3033 RMK AO2 T00790049
KGLE 160755Z AUTO 33005KT 10SM CLR 09/05 A3033 RMK AO2 T00890049
KGLE 160735Z AUTO 33005KT 10SM CLR 10/05 A3033 RMK AO2 T00960048
KGLE 160715Z AUTO 33005KT 10SM CLR 10/05 A3033 RMK AO2 T00970048
KGLE 160655Z AUTO 33007KT 10SM CLR 10/05 A3033 RMK AO2 T00980047
KGLE 160635Z AUTO 33005KT 10SM CLR 10/05 A3032 RMK AO2 T00990047
KGLE 160615Z AUTO 33005KT 10SM CLR 10/05 A3032 RMK AO2 T01000048
KGLE 160555Z AUTO 34005KT 10SM CLR 10/05 A3032 RMK AO2 T00980048 10168 20095 402210095
KGLE 160535Z AUTO 33006KT 10SM CLR 10/05 A3031 RMK AO2 T00960050
KGLE 160515Z AUTO 33005KT 10SM CLR 10/05 A3030 RMK AO2 T01000048
KGLE 160455Z AUTO 32005KT 10SM CLR 10/05 A3030 RMK AO2 T01010050
KGLE 160435Z AUTO 33005KT 10SM CLR 10/05 A3029 RMK AO2 T01030050
KGLE 160415Z AUTO 34005KT 10SM CLR 11/05 A3028 RMK AO2 T01060051
KGLE 160355Z AUTO 34004KT 10SM CLR 11/05 A3028 RMK AO2 T01090052
KGLE 160335Z AUTO 34005KT 10SM CLR 11/05 A3027 RMK AO2 T01110052
KGLE 160315Z AUTO 34004KT 10SM CLR 12/05 A3027 RMK AO2 T01190051
KGLE 160255Z AUTO 34004KT 10SM CLR 12/05 A3026 RMK AO2 T01230051
KGLE 160235Z AUTO 35005KT 10SM CLR 13/05 A3025 RMK AO2 T01310048
KGLE 160215Z AUTO 34008KT 10SM CLR 13/05 A3024 RMK AO2 T01310045
KGLE 160155Z AUTO 34005KT 10SM CLR 12/06 A3023 RMK AO2 T01170055
KGLE 160135Z AUTO 33003KT 10SM CLR 13/05 A3022 RMK AO2 T01280054
KGLE 160115Z AUTO 35004KT 10SM CLR 13/05 A3021 RMK AO2 T01330052
KGLE 160055Z AUTO 35004KT 10SM CLR 14/05 A3020 RMK AO2 T01410053
KGLE 160035Z AUTO 34006KT 10SM CLR 16/05 A3020 RMK AO2 T01550050
KGLE 160015Z AUTO 33007KT 10SM CLR 16/05 A3019 RMK AO2 T01630053
KGLE 152355Z AUTO 34006KT 10SM CLR 17/06 A3018 RMK AO2 T01690057 10221 20169
KGLE 152315Z AUTO 35010G15KT 10SM CLR 19/06 A3017 RMK AO2 T01920056
KGLE 152255Z AUTO 35010G19KT 10SM CLR 20/05 A3016 RMK AO2 T02000052
KGLE 152235Z AUTO 35016G20KT 10SM CLR 20/05 A3015 RMK AO2 T02030054
KGLE 152215Z AUTO 35012G21KT 10SM CLR 21/05 A3014 RMK AO2 T02080050
KGLE 152155Z AUTO 34015G20KT 10SM CLR 21/05 A3013 RMK AO2 T02100054
KGLE 152135Z AUTO 34015G19KT 10SM CLR 21/06 A3013 RMK AO2 T02120058 PWINO
KGLE 152115Z AUTO 35014G22KT 10SM CLR 21/06 A3012 RMK AO2 T02120060 PWINO
KGLE 152055Z AUTO 36013G21KT 10SM CLR 21/06 A3012 RMK AO2 T02140064 PWINO
KGLE 152035Z AUTO 35015G24KT 10SM CLR 22/07 A3011 RMK AO2 T02170069 PWINO
KGLE 152015Z AUTO 36018G22KT 10SM CLR 22/08 A3010 RMK AO2 T02190076 PWINO
KGLE 151955Z AUTO 35015G19KT 10SM CLR 22/08 A3010 RMK AO2 T02180080 PWINO
KGLE 151935Z AUTO 35018G24KT 10SM CLR 22/08 A3009 RMK AO2 T02170082 PWINO
KGLE 151915Z AUTO 35017G23KT 10SM CLR 22/09 A3009 RMK AO2 T02160089
KGLE 151855Z AUTO 34017G22KT 10SM CLR 21/10 A3009 RMK AO2 T02140097
KGLE 151835Z AUTO 35017G23KT 10SM SCT039 21/10 A3009 RMK AO2 T02110100
KGLE 151815Z AUTO 34015G23KT 10SM BKN033 OVC041 21/11 A3009 RMK AO2 T02090109
KGLE 151755Z AUTO 34015G22KT 10SM BKN031 20/11 A3009 RMK AO2 T02020112 10209 20168
KGLE 151735Z AUTO 33015G23KT 10SM BKN025 BKN031 21/12 A3008 RMK AO2 T02060121
KGLE 151715Z AUTO 34015G18KT 10SM OVC023 20/13 A3007 RMK AO2 T02000128
KGLE 151655Z AUTO 34012G19KT 10SM SCT015 BKN019 OVC025 20/14 A3006 RMK AO2 T01950139
KGLE 151635Z AUTO 33014G19KT 10SM OVC012 18/15 A3006 RMK AO2 T01780147
KGLE 151615Z AUTO 33012G19KT 10SM OVC008 18/16 A3006 RMK AO2 T01750161
KGLE 151555Z AUTO 34015G18KT 10SM OVC006 17/16 A3005 RMK AO2 T01700164
KGLE 151535Z AUTO 34012G19KT 3SM BR BKN006 OVC010 17/17 A3003 RMK AO2 T01690165
KGLE 151515Z AUTO 32015G21KT 4SM BR OVC008 18/18 A3001 RMK AO2 T01840175
KGLE 151455Z AUTO 34014G18KT 10SM OVC006 19/18 A2999 RMK AO2 T01880181
KGLE 151435Z AUTO 33013G17KT 10SM BKN006 OVC012 20/19 A2997 RMK AO2 T01960192 PWINO
KGLE 151415Z AUTO 30008KT 10SM BKN012 BKN027 21/21 A2995 RMK AO2 T02070205 PWINO
KGLE 151355Z AUTO 00000KT 7SM SCT025 20/20 A2994 RMK AO2 T02040202
KGLE 151335Z AUTO 00000KT 7SM SCT008 SCT012 BKN025 20/20 A2993 RMK AO2 T02000198
KGLE 151315Z AUTO 00000KT 5SM BR BKN010 BKN013 OVC025 20/20 A2992 RMK AO2 T02000199
KGLE 151255Z AUTO 00000KT 5SM BR BKN013 BKN021 OVC026 20/20 A2990 RMK AO2 T02000198
KGLE 151235Z AUTO 00000KT 4SM BR SCT013 OVC021 20/20 A2990 RMK AO2 T01980197
KGLE 151215Z AUTO 00000KT 5SM BR OVC023 20/20 A2990 RMK AO2 T01980197
KGLE 151155Z AUTO 00000KT 4SM BR OVC023 20/20 A2989 RMK AO2 70001 T02000197 10200 20180
KGLE 151135Z AUTO 00000KT 5SM BR OVC023 20/20 A2989 RMK AO2 T02000198
KGLE 151115Z AUTO 00000KT 5SM BR SCT009 OVC027 20/20 A2988 RMK AO2 T02000198
KGLE 151055Z AUTO 00000KT 5SM BR SCT004 BKN009 OVC029 20/20 A2988 RMK AO2 T02000198
KGLE 151035Z AUTO 00000KT 3SM BR OVC002 20/20 A2987 RMK AO2 T01980197
KGLE 151015Z AUTO 00000KT 3/4SM BR OVC002 20/20 A2986 RMK AO2 T01980196
KGLE 150955Z AUTO 00000KT 1SM BR OVC002 20/20 A2986 RMK AO2 T02000198
KGLE 150935Z AUTO 00000KT 1SM BR OVC002 20/20 A2985 RMK AO2 T02000198
KGLE 150915Z AUTO 00000KT 1/2SM FG OVC002 20/20 A2985 RMK AO2 T02000198
KGLE 150855Z AUTO 00000KT 2SM BR OVC002 20/20 A2985 RMK AO2 T02000197
KGLE 150835Z AUTO 00000KT 3SM BR OVC004 20/20 A2985 RMK AO2 T01960195
KGLE 150815Z AUTO 00000KT 3SM BR BKN006 20/19 A2985 RMK AO2 T01950193
KGLE 150755Z AUTO 00000KT 1SM BR OVC006 19/19 A2985 RMK AO2 T01890188
KGLE 150735Z AUTO 00000KT 1/4SM FG OVC004 19/19 A2985 RMK AO2 T01870186
KGLE 150715Z AUTO 00000KT 1/4SM FG OVC002 19/19 A2985 RMK AO2 T01860185
KGLE 150655Z AUTO 00000KT 1/2SM FG OVC004 19/19 A2984 RMK AO2 T01850185
KGLE 150635Z AUTO 00000KT 1/2SM FG BKN004 18/18 A2985 RMK AO2 T01830182